Time;durP1;ratioP1;P1;durP2;ratioP2;P2;SDS_P1;SDS_P2;PMS_P1;PMS_P2;Temp;Humidity;BMP_temperature;BMP_pressure;BME280_temperature;BME280_humidity;BME280_pressure;Samples;Min_cycle;Max_cycle;Signal;HPM_P1;HPM_P2
2023/07/23 00:00:00;;;;;;;9.15;6.47;;;;;;;14.27;100.00;100213.53;5035463;28;20021;-77
2023/07/23 00:02:27;;;;;;;15.65;6.32;;;;;;;14.24;100.00;100208.03;5035285;28;20121;-76
2023/07/23 00:04:53;;;;;;;10.07;6.40;;;;;;;14.21;100.00;100214.81;5033901;28;20071;-75
2023/07/23 00:07:21;;;;;;;8.25;6.55;;;;;;;14.16;100.00;100209.84;5017619;28;20116;-76
2023/07/23 00:09:48;;;;;;;8.63;6.22;;;;;;;14.16;100.00;100210.63;5035585;28;20080;-75
2023/07/23 00:12:14;;;;;;;9.38;6.10;;;;;;;14.11;100.00;100210.63;5034670;28;20384;-76
2023/07/23 00:14:42;;;;;;;10.48;6.47;;;;;;;14.16;100.00;100209.84;5035243;28;20029;-77
2023/07/23 00:17:09;;;;;;;11.20;6.80;;;;;;;14.16;100.00;100212.72;5035004;28;20044;-76
2023/07/23 00:19:34;;;;;;;15.77;7.80;;;;;;;14.13;100.00;100197.31;5034811;28;20044;-74
2023/07/23 00:22:00;;;;;;;7.57;5.65;;;;;;;14.15;100.00;100200.44;5000718;28;20037;-75
2023/07/23 00:24:28;;;;;;;11.10;5.95;;;;;;;14.13;100.00;100190.78;5034698;28;20034;-76
2023/07/23 00:27:02;;;;;;;9.55;6.35;;;;;;;14.20;100.00;100193.13;5035045;28;20096;-76
2023/07/23 00:29:28;;;;;;;10.00;6.53;;;;;;;14.22;100.00;100193.41;5034769;28;20030;-74
2023/07/23 00:31:54;;;;;;;9.52;6.40;;;;;;;14.25;100.00;100196.00;5034054;28;20583;-76
2023/07/23 00:34:21;;;;;;;9.10;5.85;;;;;;;14.22;100.00;100188.44;5034516;28;20199;-76
2023/07/23 00:36:47;;;;;;;7.82;5.40;;;;;;;14.26;100.00;100186.09;5034438;28;20032;-76
2023/07/23 00:39:13;;;;;;;10.40;5.28;;;;;;;14.31;100.00;100191.06;5033661;28;20041;-76
2023/07/23 00:41:39;;;;;;;8.48;5.90;;;;;;;14.31;100.00;100193.16;5034481;28;20037;-76
2023/07/23 00:44:06;;;;;;;8.00;5.80;;;;;;;14.30;100.00;100191.56;5034237;28;20049;-76
2023/07/23 00:46:47;;;;;;;9.05;6.00;;;;;;;14.30;100.00;100192.34;5016908;28;20060;-76
2023/07/23 00:49:14;;;;;;;11.93;6.00;;;;;;;14.29;100.00;100185.03;5033323;28;20224;-75
2023/07/23 00:51:41;;;;;;;10.77;6.20;;;;;;;14.23;100.00;100172.75;5016888;28;20396;-76
2023/07/23 00:54:07;;;;;;;9.93;6.25;;;;;;;14.23;100.00;100178.50;5034391;28;20025;-76
2023/07/23 00:56:44;;;;;;;9.30;6.32;;;;;;;14.10;100.00;100168.81;5032964;28;20056;-76
2023/07/23 00:59:10;;;;;;;10.25;7.03;;;;;;;14.06;100.00;100182.66;5001229;28;20080;-77
2023/07/23 01:01:37;;;;;;;10.98;6.60;;;;;;;13.94;100.00;100176.88;5016577;28;20107;-77
2023/07/23 01:04:03;;;;;;;8.90;6.03;;;;;;;13.92;100.00;100178.72;5016273;28;20033;-76
2023/07/23 01:06:32;;;;;;;10.07;7.18;;;;;;;13.86;100.00;100175.84;5032739;28;20115;-74
2023/07/23 01:08:59;;;;;;;8.27;6.20;;;;;;;13.83;100.00;100176.88;5016265;28;20037;-77
2023/07/23 01:11:27;;;;;;;8.25;6.43;;;;;;;13.78;100.00;100171.13;5032267;28;20042;-77
2023/07/23 01:13:55;;;;;;;12.00;8.27;;;;;;;13.74;100.00;100159.13;5012762;28;20385;-76
2023/07/23 01:16:24;;;;;;;10.48;7.07;;;;;;;13.71;100.00;100155.19;5012888;28;20042;-75
2023/07/23 01:18:51;;;;;;;10.73;7.18;;;;;;;13.68;100.00;100164.06;5012841;28;20056;-76
2023/07/23 01:21:17;;;;;;;9.05;6.53;;;;;;;13.52;100.00;100151.22;5012834;28;20037;-77
2023/07/23 01:23:43;;;;;;;8.60;6.95;;;;;;;13.50;100.00;100157.44;4996514;28;20033;-76
2023/07/23 01:26:09;;;;;;;12.20;7.00;;;;;;;13.46;100.00;100162.66;5013008;28;20037;-77
2023/07/23 01:28:35;;;;;;;11.52;6.80;;;;;;;13.38;100.00;100155.06;5012898;28;20387;-76
2023/07/23 01:31:02;;;;;;;9.27;6.90;;;;;;;13.28;100.00;100153.72;5013214;28;20037;-76
2023/07/23 01:33:28;;;;;;;10.50;7.25;;;;;;;13.21;100.00;100163.59;5012872;28;20026;-77
2023/07/23 01:35:58;;;;;;;12.85;7.43;;;;;;;13.15;100.00;100154.16;5012693;28;20467;-76
2023/07/23 01:38:24;;;;;;;10.63;7.35;;;;;;;13.09;100.00;100153.38;5013029;28;20044;-76
2023/07/23 01:40:52;;;;;;;14.00;7.40;;;;;;;13.01;100.00;100147.31;5029063;28;20034;-78
2023/07/23 01:43:19;;;;;;;9.05;6.90;;;;;;;13.06;100.00;100143.69;5012682;28;20061;-76
2023/07/23 01:45:46;;;;;;;9.73;6.78;;;;;;;13.09;100.00;100142.69;5028386;28;20026;-76
2023/07/23 01:48:23;;;;;;;9.20;6.88;;;;;;;13.14;100.00;100133.28;5013707;28;20033;-77
2023/07/23 01:50:49;;;;;;;11.80;7.35;;;;;;;13.17;100.00;100133.56;5013648;28;20049;-77
2023/07/23 01:53:16;;;;;;;17.02;7.63;;;;;;;13.16;100.00;100141.38;5013465;28;20037;-76
2023/07/23 01:55:42;;;;;;;10.63;6.60;;;;;;;13.15;100.00;100136.94;5028740;28;20014;-77
2023/07/23 01:58:08;;;;;;;10.93;7.15;;;;;;;13.21;100.00;100139.84;5012236;28;20026;-75
2023/07/23 02:00:34;;;;;;;9.57;6.72;;;;;;;13.27;100.00;100137.78;5012476;28;20112;-76
2023/07/23 02:03:02;;;;;;;9.68;6.68;;;;;;;13.31;100.00;100132.56;5013669;28;20083;-76
2023/07/23 02:05:29;;;;;;;11.48;6.75;;;;;;;13.34;100.00;100132.31;5013729;28;20026;-76
2023/07/23 02:07:55;;;;;;;11.55;7.65;;;;;;;13.35;100.00;100128.16;5014187;28;20033;-77
2023/07/23 02:10:21;;;;;;;10.70;6.38;;;;;;;13.26;100.00;100136.22;5014071;28;20053;-76
2023/07/23 02:12:46;;;;;;;8.05;6.07;;;;;;;13.25;100.00;100135.41;5012467;28;20496;-75
2023/07/23 02:15:13;;;;;;;9.23;6.57;;;;;;;13.20;100.00;100130.44;5013273;28;20123;-76
2023/07/23 02:17:41;;;;;;;7.10;6.10;;;;;;;13.19;100.00;100128.13;5028385;28;20030;-77
2023/07/23 02:20:08;;;;;;;8.52;6.45;;;;;;;13.22;100.00;100133.59;5012243;28;20065;-76
2023/07/23 02:22:34;;;;;;;8.88;6.68;;;;;;;13.26;100.00;100122.66;5012233;28;20026;-75
2023/07/23 02:25:02;;;;;;;9.25;6.07;;;;;;;13.31;100.00;100130.50;5012177;28;20065;-77
2023/07/23 02:27:28;;;;;;;11.60;6.50;;;;;;;13.34;100.00;100126.59;5012002;28;20022;-76
2023/07/23 02:29:55;;;;;;;11.15;6.25;;;;;;;13.32;100.00;100119.81;5011954;28;20494;-76
2023/07/23 02:32:21;;;;;;;11.27;7.13;;;;;;;13.40;100.00;100115.13;5011576;28;20036;-76
2023/07/23 02:34:47;;;;;;;10.40;6.78;;;;;;;13.45;100.00;100114.34;4995387;28;20467;-77
2023/07/23 02:37:14;;;;;;;9.98;6.03;;;;;;;13.47;100.00;100115.41;5013045;28;20033;-75
2023/07/23 02:39:40;;;;;;;10.73;5.68;;;;;;;13.49;100.00;100112.03;5028344;28;20064;-75
2023/07/23 02:42:08;;;;;;;10.88;5.75;;;;;;;13.52;100.00;100117.56;5013126;28;20026;-76
2023/07/23 02:44:34;;;;;;;8.18;5.65;;;;;;;13.53;100.00;100109.72;4995426;28;20057;-76
2023/07/23 02:47:02;;;;;;;11.25;5.85;;;;;;;13.54;100.00;100119.91;5013026;28;20030;-75
2023/07/23 02:49:27;;;;;;;8.98;6.50;;;;;;;13.54;100.00;100114.94;5012891;28;20057;-76
2023/07/23 02:51:55;;;;;;;9.05;5.95;;;;;;;13.52;100.00;100113.91;5012271;28;20048;-75
2023/07/23 02:54:22;;;;;;;8.30;5.50;;;;;;;13.48;100.00;100113.34;5014961;28;20519;-77
2023/07/23 02:56:48;;;;;;;8.18;5.68;;;;;;;13.47;100.00;100108.88;5013583;28;20494;-76
2023/07/23 02:59:14;;;;;;;7.80;5.70;;;;;;;13.35;100.00;100107.28;5015554;28;20030;-77
2023/07/23 03:01:41;;;;;;;8.70;5.88;;;;;;;13.32;100.00;100116.94;5016754;28;20038;-76
2023/07/23 03:04:07;;;;;;;7.88;5.55;;;;;;;13.27;100.00;100112.75;5016409;28;20030;-77
2023/07/23 03:06:33;;;;;;;10.30;6.05;;;;;;;13.25;100.00;100112.47;5016793;28;20068;-76
2023/07/23 03:09:00;;;;;;;7.20;6.40;;;;;;;13.25;100.00;100105.94;5016776;28;20034;-76
2023/07/23 03:11:26;;;;;;;11.73;5.93;;;;;;;13.24;100.00;100104.41;5014704;28;20087;-77
2023/07/23 03:13:53;;;;;;;9.82;6.13;;;;;;;13.28;100.00;100102.84;4998640;28;20391;-77
2023/07/23 03:16:20;;;;;;;10.43;6.35;;;;;;;13.32;100.00;100102.59;5016422;28;20451;-75
2023/07/23 03:18:46;;;;;;;8.90;5.57;;;;;;;13.27;100.00;100104.13;5016295;28;20025;-76
2023/07/23 03:21:12;;;;;;;9.60;5.75;;;;;;;13.31;100.00;100095.28;5016533;28;20092;-76
2023/07/23 03:23:38;;;;;;;8.55;6.13;;;;;;;13.35;100.00;100101.53;5016239;28;20037;-78
2023/07/23 03:26:06;;;;;;;8.20;5.47;;;;;;;13.42;100.00;100104.72;5015906;28;20467;-77
2023/07/23 03:28:34;;;;;;;7.00;5.38;;;;;;;13.47;100.00;100103.16;5016191;28;20018;-77
2023/07/23 03:31:00;;;;;;;6.22;5.35;;;;;;;13.41;100.00;100094.53;5016341;28;20030;-76
2023/07/23 03:33:27;;;;;;;7.55;5.30;;;;;;;13.46;100.00;100096.63;5016311;28;20022;-77
2023/07/23 03:35:52;;;;;;;8.02;5.53;;;;;;;13.43;100.00;100086.19;5016287;28;20032;-76
2023/07/23 03:38:18;;;;;;;10.23;5.72;;;;;;;13.43;100.00;100089.06;5031186;28;20037;-75
2023/07/23 03:40:45;;;;;;;7.63;5.72;;;;;;;13.51;100.00;100089.34;5015721;28;20061;-76
2023/07/23 03:43:13;;;;;;;6.72;5.25;;;;;;;13.43;100.00;100088.28;5031086;28;20464;-76
2023/07/23 03:45:39;;;;;;;6.63;4.97;;;;;;;13.43;100.00;100091.94;5014338;28;20066;-76
2023/07/23 03:48:04;;;;;;;8.18;5.82;;;;;;;13.46;100.00;100092.97;5016008;28;20034;-76
2023/07/23 03:50:32;;;;;;;7.68;5.93;;;;;;;13.52;100.00;100085.97;5015879;28;20041;-76
2023/07/23 03:52:59;;;;;;;7.85;5.50;;;;;;;13.60;100.00;100094.84;5015871;28;20030;-76
2023/07/23 03:55:27;;;;;;;11.13;5.43;;;;;;;13.71;100.00;100092.00;5015603;28;20026;-78
2023/07/23 03:57:52;;;;;;;6.07;4.97;;;;;;;13.80;100.00;100088.09;5015647;28;20460;-77
2023/07/23 04:00:20;;;;;;;7.05;5.40;;;;;;;13.88;100.00;100084.19;5014898;28;20057;-77
2023/07/23 04:02:48;;;;;;;8.30;5.45;;;;;;;13.93;100.00;100077.66;5015777;28;20018;-77
2023/07/23 04:05:13;;;;;;;6.65;5.53;;;;;;;14.14;100.00;100083.13;5015681;28;20121;-76
2023/07/23 04:07:39;;;;;;;8.75;5.25;;;;;;;14.23;100.00;100080.78;5013818;28;20116;-74
2023/07/23 04:10:05;;;;;;;7.88;5.15;;;;;;;14.20;100.00;100083.91;4997853;28;20036;-75
2023/07/23 04:12:36;;;;;;;6.25;5.38;;;;;;;14.15;100.00;100085.50;5014388;28;20050;-74
2023/07/23 04:15:04;;;;;;;9.65;5.63;;;;;;;14.22;100.00;100082.09;5015491;28;20510;-77
2023/07/23 04:17:29;;;;;;;6.70;5.07;;;;;;;14.25;100.00;100080.25;5015364;28;20037;-76
2023/07/23 04:19:56;;;;;;;5.93;5.03;;;;;;;14.25;100.00;100086.78;5015293;28;20037;-76
2023/07/23 04:22:22;;;;;;;6.97;4.57;;;;;;;14.35;100.00;100085.22;5015246;28;20467;-75
2023/07/23 04:24:47;;;;;;;6.30;4.88;;;;;;;14.41;100.00;100080.25;5015034;28;20048;-76
2023/07/23 04:27:14;;;;;;;5.35;4.55;;;;;;;14.53;100.00;100071.59;5014828;28;20116;-77
2023/07/23 04:29:43;;;;;;;8.77;4.93;;;;;;;14.58;100.00;100079.41;5014926;28;20166;-77
2023/07/23 04:32:09;;;;;;;7.78;4.93;;;;;;;14.57;100.00;100063.47;5015084;28;20037;-76
2023/07/23 04:34:35;;;;;;;12.35;4.50;;;;;;;14.78;100.00;100074.16;5014826;28;20479;-77
2023/07/23 04:37:01;;;;;;;8.32;5.10;;;;;;;14.87;100.00;100066.56;5014857;28;20092;-76
2023/07/23 04:39:27;;;;;;;10.32;5.00;;;;;;;14.99;100.00;100074.59;5015108;28;20065;-75
2023/07/23 04:41:52;;;;;;;5.65;4.68;;;;;;;15.03;100.00;100066.47;5014725;28;20486;-75
2023/07/23 04:44:20;;;;;;;7.97;5.18;;;;;;;15.18;100.00;100071.91;4997104;28;20456;-76
2023/07/23 04:46:45;;;;;;;6.20;5.00;;;;;;;15.28;100.00;100073.94;5013259;28;20072;-77
2023/07/23 04:49:11;;;;;;;8.07;4.45;;;;;;;15.37;100.00;100074.94;5014805;28;20069;-77
2023/07/23 04:51:37;;;;;;;6.40;4.53;;;;;;;15.48;100.00;100069.91;5014510;28;20479;-75
2023/07/23 04:54:04;;;;;;;10.18;4.68;;;;;;;15.64;100.00;100083.44;5013275;28;20030;-76
2023/07/23 04:56:31;;;;;;;6.45;4.80;;;;;;;15.79;100.00;100071.56;5013270;28;20130;-75
2023/07/23 04:58:59;;;;;;;8.40;4.85;;;;;;;15.92;100.00;100071.69;5013623;28;20460;-75
2023/07/23 05:01:25;;;;;;;9.98;5.00;;;;;;;16.00;100.00;100064.06;5014347;28;20096;-76
2023/07/23 05:03:51;;;;;;;6.00;4.38;;;;;;;16.06;100.00;100063.97;5014628;28;20526;-76
2023/07/23 05:06:21;;;;;;;7.00;4.07;;;;;;;16.08;100.00;100062.16;5014215;28;20025;-77
2023/07/23 05:08:52;;;;;;;6.45;4.35;;;;;;;16.12;100.00;100056.84;5014415;28;20038;-77
2023/07/23 05:11:18;;;;;;;;;;;;;;;16.24;100.00;100062.53;5015030;28;20034;-75
2023/07/23 05:13:45;;;;;;;7.32;4.57;;;;;;;16.44;100.00;100050.53;5032063;28;19924;-75
2023/07/23 05:16:12;;;;;;;6.50;4.20;;;;;;;16.76;100.00;100053.59;5033860;28;20029;-77
2023/07/23 05:18:38;;;;;;;4.80;3.78;;;;;;;17.04;100.00;100056.16;5033962;28;20401;-76
2023/07/23 05:21:06;;;;;;;4.68;3.90;;;;;;;17.34;100.00;100046.03;4999296;28;20049;-77
2023/07/23 05:23:33;;;;;;;7.60;3.95;;;;;;;17.64;100.00;100047.97;5016231;28;20037;-77
2023/07/23 05:25:59;;;;;;;6.15;3.88;;;;;;;17.89;100.00;100045.75;5033685;28;20079;-75
2023/07/23 05:28:25;;;;;;;7.05;3.92;;;;;;;18.17;100.00;100049.75;5033524;28;20049;-77
2023/07/23 05:30:56;;;;;;;6.28;3.80;;;;;;;18.42;100.00;100050.38;5015599;28;20043;-77
2023/07/23 05:33:21;;;;;;;7.15;3.65;;;;;;;18.65;100.00;100050.72;5015855;28;20033;-77
2023/07/23 05:35:47;;;;;;;7.85;3.67;;;;;;;18.84;100.00;100044.81;5033166;28;20063;-76
2023/07/23 05:38:13;;;;;;;3.33;3.00;;;;;;;19.09;100.00;100049.81;5028608;28;20488;-77
2023/07/23 05:40:38;;;;;;;4.47;3.20;;;;;;;19.20;100.00;100045.94;5033345;28;20410;-76
2023/07/23 05:43:16;;;;;;;5.10;3.30;;;;;;;19.37;100.00;100051.34;5033318;28;20041;-76
2023/07/23 05:45:41;;;;;;;6.45;3.20;;;;;;;19.39;100.00;100043.66;5032379;28;20034;-76
2023/07/23 05:48:07;;;;;;;5.55;2.85;;;;;;;19.47;100.00;100037.94;5015907;28;20482;-76
2023/07/23 05:50:34;;;;;;;6.47;3.10;;;;;;;19.60;100.00;100040.81;5015692;28;20076;-76
2023/07/23 05:53:01;;;;;;;5.43;2.95;;;;;;;19.70;100.00;100038.22;5016468;28;20033;-77
2023/07/23 05:55:26;;;;;;;3.90;3.50;;;;;;;19.84;100.00;100033.91;5054283;28;20063;-77
2023/07/23 05:57:53;;;;;;;4.05;3.13;;;;;;;20.02;100.00;100030.03;5051050;28;20061;-76
2023/07/23 06:00:18;;;;;;;4.68;3.13;;;;;;;20.22;100.00;100037.97;5035516;28;20160;-75
2023/07/23 06:02:44;;;;;;;3.90;3.00;;;;;;;20.40;100.00;100036.94;5052210;28;20162;-77
2023/07/23 06:05:10;;;;;;;8.85;3.50;;;;;;;20.58;100.00;100031.47;5035129;28;20438;-75
2023/07/23 06:07:36;;;;;;;5.55;3.53;;;;;;;20.74;100.00;100025.19;5035395;28;20040;-76
2023/07/23 06:10:03;;;;;;;4.30;3.17;;;;;;;21.00;100.00;100027.09;5053032;28;20033;-77
2023/07/23 06:12:30;;;;;;;4.43;2.88;;;;;;;21.24;100.00;100025.84;5015649;28;20077;-76
2023/07/23 06:14:57;;;;;;;3.83;3.08;;;;;;;21.42;100.00;100024.78;5032421;28;20336;-78
2023/07/23 06:17:24;;;;;;;2.63;2.40;;;;;;;21.77;100.00;100019.47;5014523;28;20025;-76
2023/07/23 06:19:51;;;;;;;4.78;2.88;;;;;;;22.20;100.00;100015.66;5033283;28;20068;-78
2023/07/23 06:22:16;;;;;;;5.70;2.78;;;;;;;22.77;100.00;100010.91;5015504;28;20386;-78
2023/07/23 06:24:42;;;;;;;6.30;3.15;;;;;;;23.14;99.70;100011.41;5031870;28;20026;-79
2023/07/23 06:27:08;;;;;;;2.85;2.40;;;;;;;23.32;98.68;100004.34;5015128;28;20483;-77
2023/07/23 06:29:34;;;;;;;3.25;2.58;;;;;;;23.57;90.17;100031.47;5048123;28;20367;-76
2023/07/23 06:32:02;;;;;;;2.95;2.67;;;;;;;23.99;92.83;100022.06;5035328;28;20065;-76
2023/07/23 06:34:27;;;;;;;3.33;2.33;;;;;;;24.77;90.11;99986.53;5033960;28;20112;-76
2023/07/23 06:36:54;;;;;;;3.78;2.30;;;;;;;26.27;75.61;100012.22;5019102;28;20137;-77
2023/07/23 06:39:20;;;;;;;4.60;2.50;;;;;;;27.69;64.32;100017.31;5035605;28;20400;-77
2023/07/23 06:41:46;;;;;;;2.45;1.92;;;;;;;29.20;58.52;100024.47;5035533;28;20029;-78
2023/07/23 06:44:13;;;;;;;7.10;2.50;;;;;;;30.68;49.06;100015.72;5035991;28;20026;-76
2023/07/23 06:46:38;;;;;;;3.67;2.35;;;;;;;31.93;39.52;100040.22;5034980;28;20049;-78
2023/07/23 06:49:13;;;;;;;3.63;2.45;;;;;;;32.04;36.82;100007.63;5035448;28;20390;-78
2023/07/23 06:51:39;;;;;;;3.47;2.20;;;;;;;31.67;36.56;100024.66;5036944;28;20029;-77
2023/07/23 06:54:06;;;;;;;4.28;2.40;;;;;;;31.31;39.87;100029.16;5024708;28;20060;-77
2023/07/23 06:56:33;;;;;;;2.97;2.50;;;;;;;30.75;39.68;100035.34;5017770;28;20056;-77
2023/07/23 06:59:04;;;;;;;;;;;;;;;30.30;38.34;100032.50;5024600;28;20041;-76
2023/07/23 07:01:32;;;;;;;2.88;2.20;;;;;;;29.52;39.40;100010.41;5017928;28;19913;-77
2023/07/23 07:03:58;;;;;;;4.03;2.25;;;;;;;28.69;40.77;100034.88;5023236;28;20065;-75
2023/07/23 07:06:24;;;;;;;4.60;2.42;;;;;;;28.19;43.01;100029.09;5025428;28;20034;-77
2023/07/23 07:08:51;;;;;;;2.50;2.30;;;;;;;28.14;45.35;100032.38;5027511;28;20112;-76
2023/07/23 07:11:17;;;;;;;2.33;2.13;;;;;;;28.29;44.87;100023.91;5016086;28;20026;-75
2023/07/23 07:13:43;;;;;;;2.72;2.10;;;;;;;28.34;42.57;100033.81;5032040;28;20048;-75
2023/07/23 07:16:10;;;;;;;4.18;2.50;;;;;;;27.92;42.27;100022.69;5036200;28;20036;-74
2023/07/23 07:18:36;;;;;;;4.35;2.53;;;;;;;27.53;43.44;100025.69;5035536;28;20029;-74
2023/07/23 07:21:03;;;;;;;3.85;2.40;;;;;;;27.35;46.10;100029.44;5034561;28;20044;-75
2023/07/23 07:23:30;;;;;;;4.78;2.35;;;;;;;27.17;45.14;100026.59;5029364;28;20034;-75
2023/07/23 07:26:01;;;;;;;4.65;2.20;;;;;;;27.11;45.96;100031.22;5035677;28;20022;-74
2023/07/23 07:28:29;;;;;;;3.15;2.05;;;;;;;27.04;46.78;100024.13;5035475;28;20049;-76
2023/07/23 07:30:58;;;;;;;4.80;2.40;;;;;;;26.89;48.14;100017.78;5017555;28;20049;-73
2023/07/23 07:33:28;;;;;;;5.13;2.33;;;;;;;26.90;49.17;100016.41;5034197;28;20033;-75
2023/07/23 07:35:59;;;;;;;2.87;2.03;;;;;;;26.99;49.64;100010.56;5033479;28;20071;-76
2023/07/23 07:38:27;;;;;;;3.55;2.50;;;;;;;27.07;51.00;100014.09;5034639;28;20496;-75
2023/07/23 07:40:53;;;;;;;3.05;2.33;;;;;;;27.07;48.36;100022.13;5017450;28;20395;-76
2023/07/23 07:43:19;;;;;;;5.47;2.50;;;;;;;27.05;47.40;100024.91;5016635;28;20048;-74
2023/07/23 07:45:48;;;;;;;3.20;2.47;;;;;;;27.05;48.32;100019.81;5017595;28;20063;-75
2023/07/23 07:48:22;;;;;;;3.05;2.20;;;;;;;27.02;50.23;100015.19;5035252;28;20094;-75
2023/07/23 07:50:58;;;;;;;2.55;2.33;;;;;;;26.93;50.38;100018.88;5035014;28;20321;-74
2023/07/23 07:53:26;;;;;;;3.70;2.35;;;;;;;26.83;49.92;100018.09;5034388;28;20064;-75
2023/07/23 07:55:51;;;;;;;3.70;2.33;;;;;;;26.65;51.35;100020.38;5033792;28;20100;-73
2023/07/23 07:58:24;;;;;;;5.00;2.35;;;;;;;26.46;50.43;100016.59;5034977;28;20444;-74
2023/07/23 08:00:52;;;;;;;3.72;2.38;;;;;;;26.29;50.83;100023.34;5034687;28;20386;-75
2023/07/23 08:03:18;;;;;;;6.78;2.53;;;;;;;26.21;50.87;100022.69;5017276;28;20446;-76
2023/07/23 08:05:45;;;;;;;2.83;2.05;;;;;;;26.08;50.30;100023.81;5034653;28;20026;-75
2023/07/23 08:08:13;;;;;;;3.53;2.38;;;;;;;25.96;50.53;100022.09;5034281;28;20034;-74
2023/07/23 08:10:40;;;;;;;3.00;2.33;;;;;;;25.71;50.33;100022.25;5017071;28;20029;-75
2023/07/23 08:13:09;;;;;;;2.38;2.17;;;;;;;25.69;51.39;100016.22;5037160;28;20060;-75
2023/07/23 08:15:43;;;;;;;3.22;2.42;;;;;;;25.52;50.58;100022.13;5033169;28;20025;-75
2023/07/23 08:18:09;;;;;;;2.58;2.20;;;;;;;25.48;51.38;100023.31;5052988;28;20037;-76
2023/07/23 08:20:36;;;;;;;4.15;2.45;;;;;;;25.48;51.89;100019.63;5054298;28;20077;-74
2023/07/23 08:23:05;;;;;;;3.08;1.77;;;;;;;25.35;51.48;100017.84;5053817;28;20024;-75
2023/07/23 08:25:30;;;;;;;4.05;2.30;;;;;;;25.27;52.06;100011.31;5054471;28;20029;-76
2023/07/23 08:28:02;;;;;;;7.65;2.28;;;;;;;25.19;50.58;100013.53;5054372;28;20493;-75
2023/07/23 08:30:29;;;;;;;4.85;2.30;;;;;;;25.19;50.03;100009.84;5054728;28;20017;-75
2023/07/23 08:33:09;;;;;;;3.60;2.20;;;;;;;25.14;51.98;100011.66;5052560;28;20041;-73
2023/07/23 08:35:36;;;;;;;3.72;2.45;;;;;;;25.04;52.78;99996.94;5053065;28;20024;-75
2023/07/23 08:38:02;;;;;;;3.88;2.33;;;;;;;25.40;52.05;100007.22;5035745;28;20016;-75
2023/07/23 08:40:48;;;;;;;8.02;2.50;;;;;;;25.99;52.25;100012.06;5054075;28;20087;-75
2023/07/23 08:43:52;;;;;;;4.72;2.50;;;;;;;26.38;51.75;100002.06;5035558;28;20036;-76
2023/07/23 08:46:29;;;;;;;2.65;2.40;;;;;;;26.39;46.89;100009.47;5053912;28;20025;-75
2023/07/23 08:49:03;;;;;;;4.93;2.58;;;;;;;26.44;46.54;100007.66;5037374;28;20394;-75
2023/07/23 08:51:45;;;;;;;3.38;2.10;;;;;;;26.53;46.53;100006.91;5036289;28;20524;-75
2023/07/23 08:54:14;;;;;;;5.32;2.17;;;;;;;26.76;44.97;100010.22;5053474;28;20057;-76
2023/07/23 08:56:48;;;;;;;3.90;2.17;;;;;;;27.53;49.17;100001.44;5035923;28;20029;-75
2023/07/23 08:59:14;;;;;;;2.45;2.20;;;;;;;28.77;44.76;99999.38;5036370;28;20056;-75
2023/07/23 09:01:44;;;;;;;4.63;2.20;;;;;;;30.00;40.87;99998.88;5053935;28;20481;-78
2023/07/23 09:04:12;;;;;;;3.63;2.35;;;;;;;30.92;37.39;99990.63;5054002;28;20028;-76
2023/07/23 09:06:47;;;;;;;1.90;1.80;;;;;;;31.40;32.77;99992.81;5052904;28;20021;-76
2023/07/23 09:09:14;;;;;;;3.15;2.45;;;;;;;31.56;35.52;99984.09;5053793;28;20033;-77
2023/07/23 09:11:54;;;;;;;7.43;2.13;;;;;;;31.78;33.95;100000.97;5035693;28;20087;-78
2023/07/23 09:14:21;;;;;;;3.08;2.25;;;;;;;32.06;31.74;99989.97;5033478;28;20052;-76
2023/07/23 09:16:48;;;;;;;9.35;2.95;;;;;;;32.03;30.34;99997.19;5033423;28;20022;-77
2023/07/23 09:19:35;;;;;;;3.30;1.95;;;;;;;31.60;30.09;99996.19;5033686;28;20037;-76
2023/07/23 09:22:05;;;;;;;2.45;2.25;;;;;;;31.03;31.31;99992.78;5031271;28;20069;-77
2023/07/23 09:24:34;;;;;;;7.43;2.20;;;;;;;30.43;33.18;99984.66;5032207;28;20037;-76
2023/07/23 09:27:03;;;;;;;2.88;2.17;;;;;;;30.02;33.08;99989.41;5032362;28;20291;-76
2023/07/23 09:29:36;;;;;;;3.58;2.08;;;;;;;29.90;32.58;99998.22;5031765;28;20067;-76
2023/07/23 09:32:25;;;;;;;3.28;2.58;;;;;;;29.80;33.02;100012.28;5015522;28;20029;-76
2023/07/23 09:34:55;;;;;;;4.20;2.50;;;;;;;29.62;33.25;100002.25;5033051;28;20037;-76
2023/07/23 09:37:23;;;;;;;3.00;1.87;;;;;;;29.42;34.44;99998.72;5032769;28;20463;-76
2023/07/23 09:40:01;;;;;;;3.10;2.30;;;;;;;29.21;34.74;100004.63;5046279;28;20037;-76
2023/07/23 09:42:26;;;;;;;3.90;2.63;;;;;;;28.91;34.68;100000.38;5053448;28;20056;-77
2023/07/23 09:44:52;;;;;;;3.63;2.35;;;;;;;28.91;35.18;99991.53;5052944;28;20065;-77
2023/07/23 09:47:25;;;;;;;3.33;2.42;;;;;;;29.16;34.72;99994.75;5018813;28;20523;-77
2023/07/23 09:49:54;;;;;;;4.00;2.28;;;;;;;29.30;33.89;100000.84;5018723;28;20103;-77
2023/07/23 09:52:23;;;;;;;3.08;1.90;;;;;;;29.22;34.54;99997.34;5018122;28;20532;-75
2023/07/23 09:54:53;;;;;;;4.75;2.50;;;;;;;29.12;33.50;99991.56;5034159;28;20064;-75
2023/07/23 09:57:19;;;;;;;3.20;2.50;;;;;;;29.23;34.77;99993.75;5053009;28;20104;-77
2023/07/23 09:59:46;;;;;;;6.15;2.70;;;;;;;29.29;34.14;99996.34;5018392;28;20505;-77
2023/07/23 10:02:12;;;;;;;5.10;2.45;;;;;;;29.19;34.18;99983.88;5035343;28;20123;-76
2023/07/23 10:04:39;;;;;;;3.22;2.33;;;;;;;29.19;34.27;99986.81;5034795;28;20544;-77
2023/07/23 10:07:14;;;;;;;4.40;2.40;;;;;;;29.14;34.53;99979.13;5017344;28;20517;-77
2023/07/23 10:09:39;;;;;;;3.17;2.30;;;;;;;28.91;36.35;99973.09;5052372;28;20116;-77
2023/07/23 10:12:06;;;;;;;6.55;2.70;;;;;;;28.92;36.34;99986.44;5034844;28;20136;-77
2023/07/23 10:14:34;;;;;;;2.72;1.95;;;;;;;29.28;35.03;99977.16;5052594;28;20033;-78
2023/07/23 10:17:03;;;;;;;3.25;2.08;;;;;;;29.67;35.00;99954.00;5050689;28;20125;-78
2023/07/23 10:19:29;;;;;;;6.60;2.53;;;;;;;30.02;34.03;99962.88;5051514;28;20367;-77
2023/07/23 10:21:54;;;;;;;3.63;2.60;;;;;;;30.20;33.08;99958.16;5051736;28;20474;-78
2023/07/23 10:24:21;;;;;;;2.65;1.98;;;;;;;30.04;33.21;99954.13;5048996;28;20079;-78
2023/07/23 10:26:48;;;;;;;2.63;2.38;;;;;;;29.88;34.33;99959.00;5052910;28;20037;-79
2023/07/23 10:29:23;;;;;;;2.58;1.92;;;;;;;29.83;34.19;99948.34;5053520;28;20028;-80
2023/07/23 10:31:48;;;;;;;3.75;2.25;;;;;;;29.91;34.04;99954.78;5052047;28;20040;-78
2023/07/23 10:34:27;;;;;;;7.10;2.65;;;;;;;30.07;33.73;99946.97;5052778;28;20045;-77
2023/07/23 10:37:21;;;;;;;3.53;2.13;;;;;;;29.88;34.36;99930.28;5052372;28;20060;-77
2023/07/23 10:39:52;;;;;;;2.67;2.42;;;;;;;29.80;35.38;99943.75;5052303;28;20390;-78
2023/07/23 10:42:41;;;;;;;3.20;2.20;;;;;;;29.57;35.35;99936.44;5052379;28;20035;-77
2023/07/23 10:45:23;;;;;;;3.85;2.30;;;;;;;29.41;35.00;99935.34;5052586;28;20056;-76
2023/07/23 10:48:01;;;;;;;2.90;2.17;;;;;;;29.62;35.38;99926.44;5052853;28;20036;-77
2023/07/23 10:50:29;;;;;;;5.25;2.42;;;;;;;29.88;35.47;99930.28;5053028;28;20035;-78
2023/07/23 10:53:04;;;;;;;3.95;2.40;;;;;;;29.79;34.78;99918.63;5051829;28;20033;-77
2023/07/23 10:55:47;;;;;;;4.18;2.10;;;;;;;29.74;33.62;99914.66;5052903;28;20111;-77
2023/07/23 10:58:20;;;;;;;4.78;2.22;;;;;;;29.45;34.13;99920.09;5050477;28;20033;-77
2023/07/23 11:00:52;;;;;;;2.90;1.90;;;;;;;29.43;34.78;99894.22;5043271;28;20021;-77
2023/07/23 11:03:19;;;;;;;5.55;3.10;;;;;;;29.43;34.98;99914.84;5022965;28;20048;-77
2023/07/23 11:05:45;;;;;;;3.03;2.10;;;;;;;29.46;34.43;99928.31;5038405;28;20084;-80
2023/07/23 11:08:23;;;;;;;5.18;2.25;;;;;;;29.46;35.02;99913.56;5042773;28;20049;-80
2023/07/23 11:11:03;;;;;;;7.55;2.40;;;;;;;29.52;35.92;99902.19;5052188;28;20094;-80
2023/07/23 11:13:33;;;;;;;4.40;2.22;;;;;;;29.60;33.80;99910.81;5051930;28;20052;-81
2023/07/23 11:16:00;;;;;;;4.05;2.30;;;;;;;29.45;33.85;99891.41;5034442;28;20032;-78
2023/07/23 11:18:28;;;;;;;2.67;2.25;;;;;;;29.27;33.95;99893.19;5053261;28;20132;-75
2023/07/23 11:20:57;;;;;;;3.13;1.90;;;;;;;29.14;34.04;99902.59;5055094;28;20410;-75
2023/07/23 11:23:25;;;;;;;3.97;1.98;;;;;;;29.15;35.78;99904.13;5055915;28;20079;-77
2023/07/23 11:25:51;;;;;;;3.45;2.45;;;;;;;29.26;34.96;99894.59;5038087;28;20513;-79